Avondale, Missouri
Current Conditions -  °F | °C
As of 2:54 AM on Saturday 01 Nov 2014 (Local Time) from KMKC Reporting Station
Clear Clear  
Wind Chill: 34°   Ceiling: Unl
Heat Index: 34°   Visibility: 10mi
Dew Point: 19°   Wind: 3mph
Humidity: 54%   Direction: 10°N
Pressure: 30.48"   Gusts: NA
Location:  39.1657°N, 94.5231°W
Report Text: KMKC 010754Z 01003KT 10SM CLR 01/M07 A3048 RMK AO2 SLP325 T00111072
Loading
Personal Weather Stations






























Interactive Weather Map
Tropical Storm Tracking
New forecast layout! Learn more

10-Day Weather Forecast

Advertisements
Track Severe Weather on mobile